createdAt,value
2023-01-02T00:00:22.003Z,98381.91
2023-01-02T00:02:50.499Z,98378.56
2023-01-02T00:05:18.887Z,98379.41
2023-01-02T00:07:47.145Z,98359.56
2023-01-02T00:10:16.731Z,98369.94
2023-01-02T00:12:44.825Z,98356.88
2023-01-02T00:15:13.243Z,98368.13
2023-01-02T00:17:41.447Z,98370.00
2023-01-02T00:20:10.593Z,98373.47
2023-01-02T00:22:38.826Z,98370.97
2023-01-02T00:25:08.315Z,98362.25
2023-01-02T00:27:37.909Z,98365.63
2023-01-02T00:30:06.721Z,98359.63
2023-01-02T00:32:34.914Z,98353.47
2023-01-02T00:35:03.060Z,98355.13
2023-01-02T00:37:31.160Z,98358.53
2023-01-02T00:39:59.338Z,98355.03
2023-01-02T00:42:27.515Z,98355.13
2023-01-02T00:44:57.009Z,98342.94
2023-01-02T00:47:26.372Z,98341.22
2023-01-02T00:49:54.464Z,98343.72
2023-01-02T00:52:22.582Z,98335.03
2023-01-02T00:54:50.674Z,98332.50
2023-01-02T00:57:18.786Z,98336.16
2023-01-02T00:59:46.895Z,98331.78
2023-01-02T01:02:16.506Z,98317.97
2023-01-02T01:04:44.756Z,98331.84
2023-01-02T01:07:13.164Z,98332.72
2023-01-02T01:09:41.399Z,98331.06
2023-01-02T01:12:09.660Z,98330.19
2023-01-02T01:14:37.853Z,98331.09
2023-01-02T01:17:06.058Z,98319.78
2023-01-02T01:19:36.830Z,98318.78
2023-01-02T01:22:04.946Z,98319.03
2023-01-02T01:24:33.176Z,98330.34
2023-01-02T01:27:01.405Z,98326.84
2023-01-02T01:29:29.581Z,98321.63
2023-01-02T01:31:57.782Z,98328.53
2023-01-02T01:34:25.921Z,98326.00
2023-01-02T01:36:55.454Z,98316.44
2023-01-02T01:39:23.646Z,98315.56
2023-01-02T01:41:51.845Z,98316.38
2023-01-02T01:44:48.294Z,98309.41
2023-01-02T01:47:27.386Z,98306.88
2023-01-02T01:50:05.574Z,98302.53
2023-01-02T01:52:39.545Z,98299.03
2023-01-02T01:55:14.099Z,98296.41
2023-01-02T01:57:46.219Z,98292.00
2023-01-02T02:00:15.143Z,98291.13
2023-01-02T02:02:46.921Z,98298.09
2023-01-02T02:05:19.039Z,98298.25
2023-01-02T02:07:57.387Z,98294.72
2023-01-02T02:10:25.511Z,98282.50
2023-01-02T02:12:53.636Z,98286.16
2023-01-02T02:15:28.707Z,98281.84
2023-01-02T02:18:04.319Z,98268.69
2023-01-02T02:20:40.650Z,98265.25
2023-01-02T02:23:40.237Z,98269.81
2023-01-02T02:26:44.124Z,98269.75
2023-01-02T02:30:04.423Z,98273.22
2023-01-02T02:32:55.706Z,98268.81
2023-01-02T02:35:36.834Z,98268.97
2023-01-02T02:38:09.228Z,98258.56
2023-01-02T02:40:51.561Z,98256.72
2023-01-02T02:43:29.859Z,98250.53
2023-01-02T02:46:09.698Z,98247.22
2023-01-02T02:48:46.889Z,98260.25
2023-01-02T02:51:20.031Z,98256.72
2023-01-02T02:53:56.356Z,98255.06
2023-01-02T02:56:28.109Z,98250.88
2023-01-02T02:58:57.569Z,98253.47
2023-01-02T03:01:30.813Z,98253.38
2023-01-02T03:03:59.601Z,98251.75
2023-01-02T03:06:45.901Z,98247.50
2023-01-02T03:09:20.529Z,98248.41
2023-01-02T03:11:56.320Z,98244.94
2023-01-02T03:14:32.893Z,98242.34
2023-01-02T03:17:05.337Z,98232.78
2023-01-02T03:19:39.259Z,98232.69
2023-01-02T03:22:12.580Z,98226.63
2023-01-02T03:24:42.429Z,98234.44
2023-01-02T03:27:14.921Z,98231.84
2023-01-02T03:29:47.759Z,98231.06
2023-01-02T03:32:22.818Z,98226.78
2023-01-02T03:34:53.137Z,98222.47
2023-01-02T03:37:27.213Z,98234.53
2023-01-02T03:39:59.012Z,98227.72
2023-01-02T03:42:30.185Z,98234.59
2023-01-02T03:45:03.659Z,98233.66
2023-01-02T03:47:40.192Z,98222.38
2023-01-02T03:50:13.488Z,98226.88
2023-01-02T03:52:41.824Z,98227.75
2023-01-02T03:55:11.085Z,98223.38
2023-01-02T03:57:57.537Z,98223.41
2023-01-02T04:00:34.028Z,98217.31
2023-01-02T04:03:08.855Z,98210.28
2023-01-02T04:05:41.880Z,98206.81
2023-01-02T04:08:14.737Z,98212.00
2023-01-02T04:10:46.169Z,98212.81
2023-01-02T04:13:19.096Z,98216.38
2023-01-02T04:15:49.673Z,98216.50
2023-01-02T04:18:23.736Z,98213.84
2023-01-02T04:20:58.105Z,98207.81
2023-01-02T04:23:31.359Z,98206.19
2023-01-02T04:26:05.098Z,98203.50
2023-01-02T04:28:35.172Z,98207.81
2023-01-02T04:31:09.542Z,98206.09
2023-01-02T04:33:44.828Z,98210.44
2023-01-02T04:36:16.096Z,98200.03
2023-01-02T04:38:45.745Z,98206.25
2023-01-02T04:41:18.520Z,98208.78
2023-01-02T04:43:46.707Z,98205.44
2023-01-02T04:46:15.290Z,98203.72
2023-01-02T04:48:44.873Z,98211.41
2023-01-02T04:51:13.061Z,98217.56
2023-01-02T04:53:41.225Z,98211.41
2023-01-02T04:56:10.609Z,98210.59
2023-01-02T04:58:38.735Z,98215.06
2023-01-02T05:01:10.380Z,98208.97
2023-01-02T05:03:41.304Z,98205.47
2023-01-02T05:06:11.607Z,98212.47
2023-01-02T05:08:40.257Z,98202.00
2023-01-02T05:11:09.220Z,98209.00
2023-01-02T05:13:37.382Z,98204.66
2023-01-02T05:16:06.100Z,98204.78
2023-01-02T05:18:34.361Z,98207.38
2023-01-02T05:21:03.670Z,98205.53
2023-01-02T05:23:50.785Z,98196.84
2023-01-02T05:26:19.529Z,98202.03
2023-01-02T05:28:47.703Z,98200.31
2023-01-02T05:31:16.089Z,98193.44
2023-01-02T05:33:44.312Z,98198.59
2023-01-02T05:36:12.541Z,98201.16
2023-01-02T05:38:42.002Z,98187.16
2023-01-02T05:41:10.376Z,98182.03
2023-01-02T05:43:39.435Z,98182.03
2023-01-02T05:46:13.127Z,98176.88
2023-01-02T05:48:42.173Z,98181.09
2023-01-02T05:51:12.257Z,98178.47
2023-01-02T05:53:42.966Z,98180.19
2023-01-02T05:56:13.282Z,98178.44
2023-01-02T05:58:43.026Z,98193.94
2023-01-02T06:01:13.850Z,98191.31
2023-01-02T06:03:46.196Z,98192.22
2023-01-02T06:06:15.000Z,98201.59
2023-01-02T06:08:44.715Z,98197.28
2023-01-02T06:11:13.335Z,98209.63
2023-01-02T06:13:41.846Z,98198.34
2023-01-02T06:16:11.730Z,98197.34
2023-01-02T06:18:41.226Z,98209.56
2023-01-02T06:21:12.009Z,98199.22
2023-01-02T06:23:43.066Z,98193.22
2023-01-02T06:26:14.615Z,98183.75
2023-01-02T06:28:43.526Z,98198.44
2023-01-02T06:31:13.399Z,98186.25
2023-01-02T06:33:42.074Z,98193.13
2023-01-02T06:36:14.309Z,98193.16
2023-01-02T06:38:42.920Z,98186.28
2023-01-02T06:41:13.602Z,98194.88
2023-01-02T06:43:44.191Z,98189.69
2023-01-02T06:46:13.550Z,98185.47
2023-01-02T06:48:42.150Z,98193.22
2023-01-02T06:51:13.022Z,98202.75
2023-01-02T06:53:43.040Z,98195.03
2023-01-02T06:56:14.330Z,98194.22
2023-01-02T06:58:42.553Z,98195.03
2023-01-02T07:01:12.875Z,98212.31
2023-01-02T07:03:41.103Z,98211.41
2023-01-02T07:06:11.343Z,98210.59
2023-01-02T07:08:39.805Z,98212.13
2023-01-02T07:11:14.907Z,98217.16
2023-01-02T07:13:44.387Z,98212.00
2023-01-02T07:16:14.593Z,98211.69
2023-01-02T07:18:43.042Z,98214.09
2023-01-02T07:21:12.445Z,98215.06
2023-01-02T07:23:41.605Z,98214.03
2023-01-02T07:26:09.971Z,98215.56
2023-01-02T07:28:39.715Z,98200.88
2023-01-02T07:31:10.225Z,98219.88
2023-01-02T07:33:38.757Z,98217.94
2023-01-02T07:36:09.351Z,98223.84
2023-01-02T07:38:39.241Z,98229.81
2023-01-02T07:41:15.616Z,98223.63
2023-01-02T07:43:46.918Z,98229.03
2023-01-02T07:46:16.309Z,98218.72
2023-01-02T07:48:44.999Z,98222.84
2023-01-02T07:51:13.676Z,98232.31
2023-01-02T07:53:42.542Z,98219.19
2023-01-02T07:56:11.460Z,98213.03
2023-01-02T07:58:39.644Z,98215.44
2023-01-02T08:01:11.146Z,98219.66
2023-01-02T08:03:40.743Z,98223.69
2023-01-02T08:06:10.966Z,98213.97
2023-01-02T08:08:40.546Z,98214.66
2023-01-02T08:11:09.469Z,98221.75
2023-01-02T08:13:37.731Z,98224.69
2023-01-02T08:16:09.912Z,98211.78
2023-01-02T08:18:38.842Z,98221.13
2023-01-02T08:21:07.591Z,98222.47
2023-01-02T08:23:36.634Z,98199.00
2023-01-02T08:26:06.280Z,98216.75
2023-01-02T08:28:35.398Z,98230.44
2023-01-02T08:31:03.540Z,98211.06
2023-01-02T08:33:34.175Z,98232.34
2023-01-02T08:36:02.316Z,98222.28
2023-01-02T08:38:30.489Z,98223.97
2023-01-02T08:40:59.262Z,98222.03
2023-01-02T08:43:27.601Z,98206.56
2023-01-02T08:45:56.108Z,98218.19
2023-01-02T08:48:24.272Z,98221.59
2023-01-02T08:50:53.919Z,98228.44
2023-01-02T08:53:22.137Z,98229.78
2023-01-02T08:55:50.256Z,98220.28
2023-01-02T08:58:18.377Z,98226.91
2023-01-02T09:00:46.519Z,98214.34
2023-01-02T09:03:14.761Z,98225.00
2023-01-02T09:05:42.878Z,98224.91
2023-01-02T09:08:15.765Z,98233.38
2023-01-02T09:10:44.043Z,98215.53
2023-01-02T09:13:27.740Z,98225.19
2023-01-02T09:15:56.515Z,98221.66
2023-01-02T09:18:29.362Z,98229.72
2023-01-02T09:35:11.477Z,98208.75
2023-01-02T09:37:39.591Z,98218.50
2023-01-02T09:40:08.838Z,98215.94
2023-01-02T09:42:37.051Z,98215.25
2023-01-02T09:45:09.195Z,98217.44
2023-01-02T09:47:40.573Z,98198.38
2023-01-02T09:50:14.938Z,98198.69
2023-01-02T09:52:45.793Z,98195.03
2023-01-02T09:55:19.773Z,98195.38
2023-01-02T09:57:57.656Z,98190.72
2023-01-02T10:00:32.855Z,98181.25
2023-01-02T10:03:13.106Z,98179.25
2023-01-02T10:06:14.825Z,98171.72
2023-01-02T10:08:56.400Z,98171.34
2023-01-02T10:11:41.581Z,98174.88
2023-01-02T10:14:19.982Z,98166.75
2023-01-02T10:16:52.017Z,98152.72
2023-01-02T10:19:28.853Z,98152.28
2023-01-02T10:22:00.301Z,98151.81
2023-01-02T10:24:41.211Z,98142.78
2023-01-02T10:27:16.098Z,98145.28
2023-01-02T10:29:49.609Z,98128.09
2023-01-02T10:32:20.050Z,98126.22
2023-01-02T10:34:59.982Z,98120.22
2023-01-02T10:37:28.820Z,98121.75
2023-01-02T10:39:59.235Z,98122.47
2023-01-02T10:42:27.896Z,98124.47
2023-01-02T10:44:55.994Z,98119.38
2023-01-02T10:47:34.146Z,98120.53
2023-01-02T10:50:04.510Z,98116.16
2023-01-02T10:52:35.077Z,98104.81
2023-01-02T10:55:04.888Z,98110.22
2023-01-02T10:57:41.767Z,98114.84
2023-01-02T11:00:28.799Z,98095.38
2023-01-02T11:02:58.921Z,98096.22
2023-01-02T11:05:29.658Z,98102.72
2023-01-02T11:07:59.121Z,98089.84
2023-01-02T11:10:30.992Z,98079.66
2023-01-02T11:13:03.558Z,98081.88
2023-01-02T11:15:34.725Z,98067.84
2023-01-02T11:18:12.198Z,98073.78
2023-01-02T11:20:40.797Z,98079.63
2023-01-02T11:23:15.043Z,98066.25
2023-01-02T11:25:45.209Z,98063.31
2023-01-02T11:28:18.643Z,98065.88
2023-01-02T11:30:48.693Z,98064.09
2023-01-02T11:33:28.256Z,98052.75
2023-01-02T11:35:57.709Z,98045.88
2023-01-02T11:38:30.618Z,98037.53
2023-01-02T11:41:03.252Z,98043.72
2023-01-02T11:43:48.755Z,98025.50
2023-01-02T11:46:29.365Z,98022.09
2023-01-02T11:49:03.379Z,98016.63
2023-01-02T11:51:34.667Z,98026.47
2023-01-02T11:54:06.249Z,98009.22
2023-01-02T11:56:38.629Z,98012.38
2023-01-02T11:59:13.949Z,98015.88
2023-01-02T12:01:52.988Z,98000.81
2023-01-02T12:04:22.736Z,98007.91
2023-01-02T12:07:03.276Z,98019.34
2023-01-02T12:09:44.047Z,98021.47
2023-01-02T12:12:37.401Z,98016.00
2023-01-02T12:15:50.398Z,98020.06
2023-01-02T12:18:33.067Z,98013.41
2023-01-02T12:21:11.437Z,98012.06
2023-01-02T12:23:58.124Z,98003.84
2023-01-02T12:26:33.189Z,98015.13
2023-01-02T12:29:47.262Z,98003.59
2023-01-02T12:32:46.477Z,98003.47
2023-01-02T12:35:40.130Z,98007.78
2023-01-02T12:38:09.482Z,98008.84
2023-01-02T12:40:48.524Z,97995.97
2023-01-02T12:43:37.410Z,97998.00
2023-01-02T12:46:20.959Z,98002.25
2023-01-02T12:49:13.069Z,97994.75
2023-01-02T12:51:50.681Z,97994.75
2023-01-02T12:54:55.611Z,97993.19
2023-01-02T12:57:32.446Z,97990.78
2023-01-02T13:00:42.177Z,97982.84
2023-01-02T13:03:41.102Z,97987.84
2023-01-02T13:06:45.515Z,97977.50
2023-01-02T13:09:06.910Z,97982.81
2023-01-02T13:11:42.353Z,97977.25
2023-01-02T13:14:16.710Z,97978.47
2023-01-02T13:16:50.863Z,97972.56
2023-01-02T13:19:30.974Z,97980.97
2023-01-02T13:22:09.817Z,97973.53
2023-01-02T13:24:38.248Z,97976.72
2023-01-02T13:27:06.865Z,97965.66
2023-01-02T13:29:43.295Z,97974.63
2023-01-02T13:32:13.241Z,97975.41
2023-01-02T13:34:51.844Z,97968.69
2023-01-02T13:37:22.904Z,97975.03
2023-01-02T13:39:54.657Z,97965.53
2023-01-02T13:42:43.859Z,97966.66
2023-01-02T13:45:15.954Z,97979.03
2023-01-02T13:47:50.388Z,97967.16
2023-01-02T13:50:27.361Z,97966.03
2023-01-02T13:53:02.672Z,97969.34
2023-01-02T13:55:33.517Z,97970.31
2023-01-02T13:58:35.282Z,97970.31
2023-01-02T14:01:28.181Z,97974.41
2023-01-02T14:04:29.640Z,97979.44
2023-01-02T14:07:39.701Z,97981.41
2023-01-02T14:10:29.883Z,97981.53
2023-01-02T14:13:04.219Z,97991.66
2023-01-02T14:15:37.088Z,97985.03
2023-01-02T14:18:07.163Z,97977.50
2023-01-02T14:20:38.628Z,97982.91
2023-01-02T14:23:10.504Z,97986.31
2023-01-02T14:25:47.349Z,97988.66
2023-01-02T14:28:24.411Z,97990.53
2023-01-02T14:30:52.687Z,97981.88
2023-01-02T14:33:28.979Z,97985.63
2023-01-02T14:36:01.127Z,97977.31
2023-01-02T14:38:37.112Z,97986.84
2023-01-02T14:41:19.256Z,97995.44
2023-01-02T14:43:48.745Z,97990.84
2023-01-02T14:46:20.691Z,97991.38
2023-01-02T14:48:56.032Z,97997.13
2023-01-02T14:51:33.426Z,98001.44
2023-01-02T14:54:13.095Z,98001.38
2023-01-02T14:56:45.562Z,97995.28
2023-01-02T14:59:18.881Z,98007.75
2023-01-02T15:01:50.890Z,97998.81
2023-01-02T15:04:24.249Z,97993.88
2023-01-02T15:07:10.017Z,97999.56
2023-01-02T15:09:45.252Z,98006.28
2023-01-02T15:12:40.957Z,98001.63
2023-01-02T15:15:12.669Z,98014.31
2023-01-02T15:17:41.992Z,98010.56
2023-01-02T15:20:18.368Z,98007.22
2023-01-02T15:22:47.466Z,98011.69
2023-01-02T15:25:31.984Z,98015.78
2023-01-02T15:28:00.283Z,98014.31
2023-01-02T15:30:30.383Z,98015.97
2023-01-02T15:32:58.641Z,98015.97
2023-01-02T15:35:31.092Z,98023.31
2023-01-02T15:37:59.395Z,98025.56
2023-01-02T15:40:32.173Z,98018.84
2023-01-02T15:43:21.813Z,98030.66
2023-01-02T15:45:52.599Z,98034.72
2023-01-02T15:48:23.030Z,98031.00
2023-01-02T15:50:54.577Z,98038.50
2023-01-02T15:53:28.383Z,98033.06
2023-01-02T15:55:59.628Z,98038.81
2023-01-02T15:58:30.177Z,98030.66
2023-01-02T16:01:16.449Z,98029.22
2023-01-02T16:04:02.920Z,98034.06
2023-01-02T16:06:34.892Z,98038.72
2023-01-02T16:09:05.486Z,98039.91
2023-01-02T16:11:44.803Z,98034.06
2023-01-02T16:14:21.212Z,98043.00
2023-01-02T16:16:54.917Z,98036.19
2023-01-02T16:19:28.314Z,98040.94
2023-01-02T16:22:05.542Z,98044.81
2023-01-02T16:24:35.924Z,98041.78
2023-01-02T16:27:07.024Z,98053.38
2023-01-02T16:29:35.194Z,98057.78
2023-01-02T16:32:03.449Z,98053.47
2023-01-02T16:34:35.842Z,98047.81
2023-01-02T16:37:12.590Z,98065.38
2023-01-02T16:39:50.197Z,98060.13
2023-01-02T16:42:36.698Z,98059.84
2023-01-02T16:45:07.342Z,98066.13
2023-01-02T16:47:42.118Z,98063.41
2023-01-02T16:50:18.367Z,98059.97
2023-01-02T16:52:47.008Z,98046.38
2023-01-02T16:55:17.333Z,98060.72
2023-01-02T16:57:47.190Z,98054.59
2023-01-02T17:00:16.512Z,98059.94
2023-01-02T17:02:44.996Z,98062.00
2023-01-02T17:05:19.077Z,98069.78
2023-01-02T17:07:47.561Z,98060.84
2023-01-02T17:10:16.084Z,98068.53
2023-01-02T17:12:44.297Z,98083.56
2023-01-02T17:15:16.053Z,98089.72
2023-01-02T17:17:44.497Z,98076.88
2023-01-02T17:20:14.121Z,98086.63
2023-01-02T17:22:43.355Z,98094.63
2023-01-02T17:25:15.162Z,98092.38
2023-01-02T17:27:43.878Z,98096.00
2023-01-02T17:30:15.480Z,98090.13
2023-01-02T17:32:45.052Z,98096.16
2023-01-02T17:35:17.679Z,98085.66
2023-01-02T17:37:54.288Z,98083.22
2023-01-02T17:40:22.502Z,98100.69
2023-01-02T17:42:50.721Z,98105.97
2023-01-02T17:45:20.709Z,98111.19
2023-01-02T17:48:01.121Z,98113.34
2023-01-02T17:50:33.123Z,98113.44
2023-01-02T17:53:01.306Z,98111.66
2023-01-02T17:55:29.503Z,98112.81
2023-01-02T17:58:00.586Z,98122.31
2023-01-02T18:00:30.325Z,98123.31
2023-01-02T18:02:58.682Z,98126.78
2023-01-02T18:05:27.025Z,98126.06
2023-01-02T18:07:55.319Z,98126.19
2023-01-02T18:10:29.165Z,98126.47
2023-01-02T18:13:01.479Z,98116.34
2023-01-02T18:15:31.501Z,98124.06
2023-01-02T18:18:07.623Z,98126.75
2023-01-02T18:20:36.171Z,98124.13
2023-01-02T18:23:13.023Z,98119.13
2023-01-02T18:25:44.370Z,98119.28
2023-01-02T18:28:26.563Z,98118.47
2023-01-02T18:31:03.376Z,98124.72
2023-01-02T18:33:34.623Z,98130.00
2023-01-02T18:36:04.252Z,98130.06
2023-01-02T18:38:35.627Z,98132.78
2023-01-02T18:41:15.425Z,98143.31
2023-01-02T18:43:46.017Z,98138.09
2023-01-02T18:46:18.891Z,98136.38
2023-01-02T18:48:48.472Z,98150.34
2023-01-02T18:51:19.628Z,98147.88
2023-01-02T18:53:51.346Z,98144.53
2023-01-02T18:56:25.791Z,98145.53
2023-01-02T18:59:02.480Z,98150.88
2023-01-02T19:01:36.429Z,98148.31
2023-01-02T19:04:27.868Z,98159.63
2023-01-02T19:06:58.937Z,98152.91
2023-01-02T19:09:30.858Z,98156.47
2023-01-02T19:12:20.663Z,98147.72
2023-01-02T19:14:50.672Z,98159.97
2023-01-02T19:17:26.037Z,98160.03
2023-01-02T19:19:56.804Z,98152.81
2023-01-02T19:22:32.137Z,98153.78
2023-01-02T19:25:10.181Z,98166.31
2023-01-02T19:27:39.729Z,98166.75
2023-01-02T19:30:24.177Z,98175.16
2023-01-02T19:32:56.981Z,98171.88
2023-01-02T19:35:54.673Z,98179.34
2023-01-02T19:38:28.757Z,98176.28
2023-01-02T19:40:58.746Z,98168.94
2023-01-02T19:43:28.047Z,98172.66
2023-01-02T19:45:57.947Z,98168.81
2023-01-02T19:48:28.012Z,98171.59
2023-01-02T19:50:57.052Z,98178.28
2023-01-02T19:53:25.267Z,98171.81
2023-01-02T19:55:54.523Z,98183.66
2023-01-02T19:58:24.985Z,98188.22
2023-01-02T20:00:53.845Z,98194.31
2023-01-02T20:03:23.195Z,98195.88
2023-01-02T20:05:56.712Z,98194.88
2023-01-02T20:08:25.508Z,98188.81
2023-01-02T20:10:54.517Z,98203.06
2023-01-02T20:13:23.354Z,98208.50
2023-01-02T20:15:51.934Z,98215.97
2023-01-02T20:18:22.037Z,98210.63
2023-01-02T20:20:50.253Z,98221.75
2023-01-02T20:23:21.148Z,98230.72
2023-01-02T20:25:49.749Z,98225.53
2023-01-02T20:28:18.424Z,98224.78
2023-01-02T20:30:48.551Z,98235.88
2023-01-02T20:33:18.603Z,98226.59
2023-01-02T20:35:48.672Z,98232.00
2023-01-02T20:38:18.406Z,98238.44
2023-01-02T20:40:52.678Z,98241.53
2023-01-02T20:43:22.346Z,98240.63
2023-01-02T20:45:51.056Z,98246.25
2023-01-02T20:48:21.440Z,98244.00
2023-01-02T20:50:51.796Z,98250.81
2023-01-02T20:53:21.255Z,98252.28
2023-01-02T20:55:52.510Z,98252.19
2023-01-02T20:58:23.011Z,98254.06
2023-01-02T21:00:52.102Z,98268.56
2023-01-02T21:03:21.288Z,98266.09
2023-01-02T21:05:50.263Z,98271.41
2023-01-02T21:08:19.596Z,98281.91
2023-01-02T21:10:49.172Z,98283.09
2023-01-02T21:13:23.743Z,98281.50
2023-01-02T21:15:53.226Z,98286.91
2023-01-02T21:18:24.201Z,98283.56
2023-01-02T21:20:53.717Z,98290.47
2023-01-02T21:23:24.376Z,98288.56
2023-01-02T21:25:54.337Z,98292.50
2023-01-02T21:28:26.027Z,98293.69
2023-01-02T21:30:54.829Z,98300.81
2023-01-02T21:33:24.792Z,98308.81
2023-01-02T21:35:54.451Z,98311.28
2023-01-02T21:38:24.054Z,98315.13
2023-01-02T21:40:53.104Z,98326.72
2023-01-02T21:43:21.550Z,98325.16
2023-01-02T21:45:51.326Z,98333.13
2023-01-02T21:48:19.606Z,98332.44
2023-01-02T21:50:47.932Z,98339.47
2023-01-02T21:53:16.943Z,98347.56
2023-01-02T21:55:45.327Z,98348.47
2023-01-02T21:58:14.339Z,98354.56
2023-01-02T22:00:43.530Z,98358.31
2023-01-02T22:03:13.583Z,98357.59
2023-01-02T22:05:41.996Z,98370.91
2023-01-02T22:08:10.263Z,98365.81
2023-01-02T22:10:39.446Z,98342.72
2023-01-02T22:13:07.621Z,98365.38
2023-01-02T22:15:35.821Z,98364.59
2023-01-02T22:18:04.081Z,98372.47
2023-01-02T22:20:33.697Z,98370.94
2023-01-02T22:23:01.968Z,98366.69
2023-01-02T22:25:30.274Z,98371.16
2023-01-02T22:27:58.576Z,98368.66
2023-01-02T22:30:33.921Z,98373.19
2023-01-02T22:33:03.399Z,98378.56
2023-01-02T22:35:31.603Z,98375.19
2023-01-02T22:38:01.398Z,98383.09
2023-01-02T22:40:30.134Z,98380.56
2023-01-02T22:43:01.714Z,98392.09
2023-01-02T22:45:34.822Z,98387.88
2023-01-02T22:48:07.119Z,98387.88
2023-01-02T22:50:43.620Z,98397.59
2023-01-02T22:53:19.848Z,98388.09
2023-01-02T22:55:48.620Z,98381.34
2023-01-02T22:58:17.092Z,98393.66
2023-01-02T23:00:46.555Z,98391.94
2023-01-02T23:03:16.679Z,98395.56
2023-01-02T23:05:45.366Z,98402.50
2023-01-02T23:08:15.953Z,98408.66
2023-01-02T23:10:44.181Z,98410.38
2023-01-02T23:13:12.424Z,98410.47
2023-01-02T23:16:00.935Z,98404.47
2023-01-02T23:18:49.134Z,98407.00
2023-01-02T23:21:23.302Z,98404.47
2023-01-02T23:23:53.914Z,98419.31
2023-01-02T23:26:24.154Z,98415.84
2023-01-02T23:29:06.490Z,98420.28
2023-01-02T23:31:36.666Z,98418.63
2023-01-02T23:34:05.138Z,98427.47
2023-01-02T23:36:33.688Z,98420.47
2023-01-02T23:39:04.050Z,98420.63
2023-01-02T23:41:32.294Z,98412.78
2023-01-02T23:44:00.475Z,98413.66
2023-01-02T23:46:28.742Z,98409.34
2023-01-02T23:48:57.008Z,98404.91
2023-01-02T23:51:25.361Z,98410.09
2023-01-02T23:53:53.532Z,98391.06
2023-01-02T23:56:25.243Z,98412.75
2023-01-02T23:58:56.460Z,98418.88
